sensor_id;sensor_type;location;lat;lon;timestamp;P1;durP1;ratioP1;P2;durP2;ratioP2
33357;SDS011;19717;42.614;23.418;2023-05-07T00:00:58;1.20;;;1.10;;
33357;SDS011;19717;42.614;23.418;2023-05-07T00:03:24;0.90;;;0.90;;
33357;SDS011;19717;42.614;23.418;2023-05-07T00:05:51;1.05;;;1.05;;
33357;SDS011;19717;42.614;23.418;2023-05-07T00:08:18;1.02;;;1.02;;
33357;SDS011;19717;42.614;23.418;2023-05-07T00:10:44;1.08;;;1.08;;
33357;SDS011;19717;42.614;23.418;2023-05-07T00:13:11;1.10;;;1.10;;
33357;SDS011;19717;42.614;23.418;2023-05-07T00:15:37;1.00;;;1.00;;
33357;SDS011;19717;42.614;23.418;2023-05-07T00:18:03;1.00;;;1.00;;
33357;SDS011;19717;42.614;23.418;2023-05-07T00:20:29;1.13;;;1.13;;
33357;SDS011;19717;42.614;23.418;2023-05-07T00:22:55;1.08;;;1.08;;
33357;SDS011;19717;42.614;23.418;2023-05-07T00:25:21;1.10;;;1.00;;
33357;SDS011;19717;42.614;23.418;2023-05-07T00:27:47;0.95;;;0.95;;
33357;SDS011;19717;42.614;23.418;2023-05-07T00:30:14;1.30;;;1.20;;
33357;SDS011;19717;42.614;23.418;2023-05-07T00:32:40;1.10;;;1.10;;
33357;SDS011;19717;42.614;23.418;2023-05-07T00:35:06;1.50;;;1.20;;
33357;SDS011;19717;42.614;23.418;2023-05-07T00:37:33;1.27;;;1.20;;
33357;SDS011;19717;42.614;23.418;2023-05-07T00:39:59;1.08;;;1.08;;
33357;SDS011;19717;42.614;23.418;2023-05-07T00:42:27;1.25;;;1.23;;
33357;SDS011;19717;42.614;23.418;2023-05-07T00:44:56;1.00;;;1.00;;
33357;SDS011;19717;42.614;23.418;2023-05-07T00:47:22;2.47;;;1.17;;
33357;SDS011;19717;42.614;23.418;2023-05-07T00:49:48;1.60;;;1.50;;
33357;SDS011;19717;42.614;23.418;2023-05-07T00:52:15;1.30;;;1.20;;
33357;SDS011;19717;42.614;23.418;2023-05-07T00:54:42;1.20;;;1.20;;
33357;SDS011;19717;42.614;23.418;2023-05-07T00:57:08;1.63;;;1.52;;
33357;SDS011;19717;42.614;23.418;2023-05-07T00:59:36;1.50;;;1.40;;
33357;SDS011;19717;42.614;23.418;2023-05-07T01:02:02;2.22;;;1.40;;
33357;SDS011;19717;42.614;23.418;2023-05-07T01:04:28;1.33;;;1.25;;
33357;SDS011;19717;42.614;23.418;2023-05-07T01:06:55;1.55;;;1.45;;
33357;SDS011;19717;42.614;23.418;2023-05-07T01:09:22;1.45;;;1.35;;
33357;SDS011;19717;42.614;23.418;2023-05-07T01:11:50;1.42;;;1.33;;
33357;SDS011;19717;42.614;23.418;2023-05-07T01:14:16;1.20;;;1.20;;
33357;SDS011;19717;42.614;23.418;2023-05-07T01:16:43;1.50;;;1.40;;
33357;SDS011;19717;42.614;23.418;2023-05-07T01:19:09;1.30;;;1.20;;
33357;SDS011;19717;42.614;23.418;2023-05-07T01:21:36;1.30;;;1.30;;
33357;SDS011;19717;42.614;23.418;2023-05-07T01:24:03;1.52;;;1.40;;
33357;SDS011;19717;42.614;23.418;2023-05-07T01:26:30;1.70;;;1.60;;
33357;SDS011;19717;42.614;23.418;2023-05-07T01:28:56;1.70;;;1.60;;
33357;SDS011;19717;42.614;23.418;2023-05-07T01:31:23;1.38;;;1.30;;
33357;SDS011;19717;42.614;23.418;2023-05-07T01:33:49;1.52;;;1.42;;
33357;SDS011;19717;42.614;23.418;2023-05-07T01:36:17;1.70;;;1.60;;
33357;SDS011;19717;42.614;23.418;2023-05-07T01:38:44;1.65;;;1.50;;
33357;SDS011;19717;42.614;23.418;2023-05-07T01:41:11;1.60;;;1.50;;
33357;SDS011;19717;42.614;23.418;2023-05-07T01:43:38;1.70;;;1.60;;
33357;SDS011;19717;42.614;23.418;2023-05-07T01:46:06;2.08;;;1.90;;
33357;SDS011;19717;42.614;23.418;2023-05-07T01:48:32;2.13;;;1.90;;
33357;SDS011;19717;42.614;23.418;2023-05-07T01:50:58;1.90;;;1.77;;
33357;SDS011;19717;42.614;23.418;2023-05-07T01:53:26;2.15;;;2.05;;
33357;SDS011;19717;42.614;23.418;2023-05-07T01:55:55;1.90;;;1.80;;
33357;SDS011;19717;42.614;23.418;2023-05-07T01:58:21;1.98;;;1.88;;
33357;SDS011;19717;42.614;23.418;2023-05-07T02:00:47;2.28;;;1.95;;
33357;SDS011;19717;42.614;23.418;2023-05-07T02:03:14;2.10;;;2.00;;
33357;SDS011;19717;42.614;23.418;2023-05-07T02:05:40;2.30;;;2.10;;
33357;SDS011;19717;42.614;23.418;2023-05-07T02:08:06;1.85;;;1.75;;
33357;SDS011;19717;42.614;23.418;2023-05-07T02:10:32;2.40;;;2.20;;
33357;SDS011;19717;42.614;23.418;2023-05-07T02:12:58;2.03;;;1.92;;
33357;SDS011;19717;42.614;23.418;2023-05-07T02:15:26;1.95;;;1.85;;
33357;SDS011;19717;42.614;23.418;2023-05-07T02:18:03;1.73;;;1.63;;
33357;SDS011;19717;42.614;23.418;2023-05-07T02:20:29;1.92;;;1.80;;
33357;SDS011;19717;42.614;23.418;2023-05-07T02:22:56;1.70;;;1.60;;
33357;SDS011;19717;42.614;23.418;2023-05-07T02:25:22;1.90;;;1.80;;
33357;SDS011;19717;42.614;23.418;2023-05-07T02:27:48;1.98;;;1.88;;
33357;SDS011;19717;42.614;23.418;2023-05-07T02:30:14;1.92;;;1.83;;
33357;SDS011;19717;42.614;23.418;2023-05-07T02:32:40;1.80;;;1.70;;
33357;SDS011;19717;42.614;23.418;2023-05-07T02:35:06;2.28;;;1.90;;
33357;SDS011;19717;42.614;23.418;2023-05-07T02:37:32;1.98;;;1.67;;
33357;SDS011;19717;42.614;23.418;2023-05-07T02:39:59;1.90;;;1.80;;
33357;SDS011;19717;42.614;23.418;2023-05-07T02:42:25;1.90;;;1.80;;
33357;SDS011;19717;42.614;23.418;2023-05-07T02:44:51;1.70;;;1.60;;
33357;SDS011;19717;42.614;23.418;2023-05-07T02:47:17;1.92;;;1.83;;
33357;SDS011;19717;42.614;23.418;2023-05-07T02:49:43;2.15;;;2.00;;
33357;SDS011;19717;42.614;23.418;2023-05-07T02:52:09;1.88;;;1.77;;
33357;SDS011;19717;42.614;23.418;2023-05-07T02:54:35;1.90;;;1.80;;
33357;SDS011;19717;42.614;23.418;2023-05-07T02:57:01;2.20;;;2.00;;
33357;SDS011;19717;42.614;23.418;2023-05-07T02:59:28;1.75;;;1.65;;
33357;SDS011;19717;42.614;23.418;2023-05-07T03:01:54;2.05;;;1.95;;
33357;SDS011;19717;42.614;23.418;2023-05-07T03:04:20;2.10;;;2.00;;
33357;SDS011;19717;42.614;23.418;2023-05-07T03:06:46;1.90;;;1.80;;
33357;SDS011;19717;42.614;23.418;2023-05-07T03:09:12;2.83;;;2.60;;
33357;SDS011;19717;42.614;23.418;2023-05-07T03:11:38;2.95;;;2.75;;
33357;SDS011;19717;42.614;23.418;2023-05-07T03:14:04;3.08;;;2.75;;
33357;SDS011;19717;42.614;23.418;2023-05-07T03:16:30;4.10;;;2.80;;
33357;SDS011;19717;42.614;23.418;2023-05-07T03:18:56;3.03;;;2.80;;
33357;SDS011;19717;42.614;23.418;2023-05-07T03:21:22;2.88;;;2.67;;
33357;SDS011;19717;42.614;23.418;2023-05-07T03:23:48;2.88;;;2.67;;
33357;SDS011;19717;42.614;23.418;2023-05-07T03:26:15;2.88;;;2.67;;
33357;SDS011;19717;42.614;23.418;2023-05-07T03:28:41;2.88;;;2.65;;
33357;SDS011;19717;42.614;23.418;2023-05-07T03:31:07;2.78;;;2.58;;
33357;SDS011;19717;42.614;23.418;2023-05-07T03:33:33;2.40;;;2.30;;
33357;SDS011;19717;42.614;23.418;2023-05-07T03:36:00;2.78;;;2.50;;
33357;SDS011;19717;42.614;23.418;2023-05-07T03:38:26;4.50;;;3.10;;
33357;SDS011;19717;42.614;23.418;2023-05-07T03:40:52;3.20;;;2.95;;
33357;SDS011;19717;42.614;23.418;2023-05-07T03:43:18;3.33;;;3.08;;
33357;SDS011;19717;42.614;23.418;2023-05-07T03:45:44;3.00;;;2.80;;
33357;SDS011;19717;42.614;23.418;2023-05-07T03:48:13;3.30;;;3.00;;
33357;SDS011;19717;42.614;23.418;2023-05-07T03:50:39;3.13;;;2.92;;
33357;SDS011;19717;42.614;23.418;2023-05-07T03:53:06;3.88;;;2.78;;
33357;SDS011;19717;42.614;23.418;2023-05-07T03:55:32;2.55;;;2.35;;
33357;SDS011;19717;42.614;23.418;2023-05-07T03:57:58;3.95;;;2.85;;
33357;SDS011;19717;42.614;23.418;2023-05-07T04:00:25;2.95;;;2.75;;
33357;SDS011;19717;42.614;23.418;2023-05-07T04:02:51;4.18;;;2.72;;
33357;SDS011;19717;42.614;23.418;2023-05-07T04:05:17;2.67;;;2.47;;
33357;SDS011;19717;42.614;23.418;2023-05-07T04:07:48;2.92;;;2.72;;
33357;SDS011;19717;42.614;23.418;2023-05-07T04:10:16;3.00;;;2.80;;
33357;SDS011;19717;42.614;23.418;2023-05-07T04:12:42;3.25;;;2.95;;
33357;SDS011;19717;42.614;23.418;2023-05-07T04:15:08;3.00;;;2.67;;
33357;SDS011;19717;42.614;23.418;2023-05-07T04:17:35;2.95;;;2.67;;
33357;SDS011;19717;42.614;23.418;2023-05-07T04:20:03;3.05;;;2.85;;
33357;SDS011;19717;42.614;23.418;2023-05-07T04:22:32;2.88;;;2.67;;
33357;SDS011;19717;42.614;23.418;2023-05-07T04:24:58;3.30;;;3.00;;
33357;SDS011;19717;42.614;23.418;2023-05-07T04:27:25;2.83;;;2.63;;
33357;SDS011;19717;42.614;23.418;2023-05-07T04:29:51;2.92;;;2.67;;
33357;SDS011;19717;42.614;23.418;2023-05-07T04:32:20;3.13;;;2.92;;
33357;SDS011;19717;42.614;23.418;2023-05-07T04:34:46;3.33;;;3.03;;
33357;SDS011;19717;42.614;23.418;2023-05-07T04:37:12;3.10;;;2.90;;
33357;SDS011;19717;42.614;23.418;2023-05-07T04:39:38;3.15;;;2.95;;
33357;SDS011;19717;42.614;23.418;2023-05-07T04:42:04;3.40;;;3.10;;
33357;SDS011;19717;42.614;23.418;2023-05-07T04:44:33;3.15;;;2.88;;
33357;SDS011;19717;42.614;23.418;2023-05-07T04:47:00;3.15;;;2.95;;
33357;SDS011;19717;42.614;23.418;2023-05-07T04:49:26;3.22;;;2.97;;
33357;SDS011;19717;42.614;23.418;2023-05-07T04:51:52;3.00;;;2.80;;
33357;SDS011;19717;42.614;23.418;2023-05-07T04:54:18;3.03;;;2.72;;
33357;SDS011;19717;42.614;23.418;2023-05-07T04:56:44;3.15;;;2.85;;
33357;SDS011;19717;42.614;23.418;2023-05-07T04:59:10;3.10;;;2.80;;
33357;SDS011;19717;42.614;23.418;2023-05-07T05:01:36;2.88;;;2.67;;
33357;SDS011;19717;42.614;23.418;2023-05-07T05:04:02;3.08;;;2.88;;
33357;SDS011;19717;42.614;23.418;2023-05-07T05:06:28;2.80;;;2.60;;
33357;SDS011;19717;42.614;23.418;2023-05-07T05:08:55;3.47;;;3.17;;
33357;SDS011;19717;42.614;23.418;2023-05-07T05:11:21;3.58;;;3.28;;
33357;SDS011;19717;42.614;23.418;2023-05-07T05:13:47;2.80;;;2.60;;
33357;SDS011;19717;42.614;23.418;2023-05-07T05:16:14;3.17;;;2.88;;
33357;SDS011;19717;42.614;23.418;2023-05-07T05:18:40;2.78;;;2.58;;
33357;SDS011;19717;42.614;23.418;2023-05-07T05:21:06;2.75;;;2.55;;
33357;SDS011;19717;42.614;23.418;2023-05-07T05:23:33;3.33;;;3.03;;
33357;SDS011;19717;42.614;23.418;2023-05-07T05:25:59;2.90;;;2.70;;
33357;SDS011;19717;42.614;23.418;2023-05-07T05:28:25;2.83;;;2.63;;
33357;SDS011;19717;42.614;23.418;2023-05-07T05:30:52;2.65;;;2.45;;
33357;SDS011;19717;42.614;23.418;2023-05-07T05:33:18;2.90;;;2.70;;
33357;SDS011;19717;42.614;23.418;2023-05-07T05:35:44;2.67;;;2.47;;
33357;SDS011;19717;42.614;23.418;2023-05-07T05:38:11;2.90;;;2.70;;
33357;SDS011;19717;42.614;23.418;2023-05-07T05:40:37;2.60;;;2.40;;
33357;SDS011;19717;42.614;23.418;2023-05-07T05:43:05;2.95;;;2.75;;
33357;SDS011;19717;42.614;23.418;2023-05-07T05:45:31;2.53;;;2.35;;
33357;SDS011;19717;42.614;23.418;2023-05-07T05:47:57;3.15;;;2.90;;
33357;SDS011;19717;42.614;23.418;2023-05-07T05:50:23;2.90;;;2.70;;
33357;SDS011;19717;42.614;23.418;2023-05-07T05:52:49;2.80;;;2.60;;
33357;SDS011;19717;42.614;23.418;2023-05-07T05:55:15;3.25;;;2.95;;
33357;SDS011;19717;42.614;23.418;2023-05-07T05:57:42;2.58;;;2.38;;
33357;SDS011;19717;42.614;23.418;2023-05-07T06:00:08;2.60;;;2.40;;
33357;SDS011;19717;42.614;23.418;2023-05-07T06:02:34;2.83;;;2.63;;
33357;SDS011;19717;42.614;23.418;2023-05-07T06:05:00;2.78;;;2.58;;
33357;SDS011;19717;42.614;23.418;2023-05-07T06:07:26;2.63;;;2.42;;
33357;SDS011;19717;42.614;23.418;2023-05-07T06:09:52;2.63;;;2.42;;
33357;SDS011;19717;42.614;23.418;2023-05-07T06:12:18;2.60;;;2.40;;
33357;SDS011;19717;42.614;23.418;2023-05-07T06:14:44;2.50;;;2.30;;
33357;SDS011;19717;42.614;23.418;2023-05-07T06:17:11;2.60;;;2.40;;
33357;SDS011;19717;42.614;23.418;2023-05-07T06:19:37;2.53;;;2.33;;
33357;SDS011;19717;42.614;23.418;2023-05-07T06:22:03;5.97;;;2.50;;
33357;SDS011;19717;42.614;23.418;2023-05-07T06:24:29;2.58;;;2.38;;
33357;SDS011;19717;42.614;23.418;2023-05-07T06:26:55;2.53;;;2.30;;
33357;SDS011;19717;42.614;23.418;2023-05-07T06:29:23;2.55;;;2.30;;
33357;SDS011;19717;42.614;23.418;2023-05-07T06:31:51;2.35;;;2.20;;
33357;SDS011;19717;42.614;23.418;2023-05-07T06:34:17;2.17;;;2.00;;
33357;SDS011;19717;42.614;23.418;2023-05-07T06:36:43;2.45;;;2.25;;
33357;SDS011;19717;42.614;23.418;2023-05-07T06:39:09;2.28;;;2.08;;
33357;SDS011;19717;42.614;23.418;2023-05-07T06:41:35;4.18;;;2.58;;
33357;SDS011;19717;42.614;23.418;2023-05-07T06:44:02;2.25;;;2.05;;
33357;SDS011;19717;42.614;23.418;2023-05-07T06:46:28;1.98;;;1.88;;
33357;SDS011;19717;42.614;23.418;2023-05-07T06:48:55;2.10;;;2.00;;
33357;SDS011;19717;42.614;23.418;2023-05-07T06:51:21;1.85;;;1.75;;
33357;SDS011;19717;42.614;23.418;2023-05-07T06:53:48;2.47;;;2.10;;
33357;SDS011;19717;42.614;23.418;2023-05-07T06:56:14;2.53;;;2.33;;
33357;SDS011;19717;42.614;23.418;2023-05-07T06:58:40;1.85;;;1.70;;
33357;SDS011;19717;42.614;23.418;2023-05-07T07:01:06;1.90;;;1.70;;
33357;SDS011;19717;42.614;23.418;2023-05-07T07:03:32;1.90;;;1.80;;
33357;SDS011;19717;42.614;23.418;2023-05-07T07:05:58;3.80;;;1.90;;
33357;SDS011;19717;42.614;23.418;2023-05-07T07:08:24;1.90;;;1.80;;
33357;SDS011;19717;42.614;23.418;2023-05-07T07:10:50;1.90;;;1.80;;
33357;SDS011;19717;42.614;23.418;2023-05-07T07:13:16;1.90;;;1.80;;
33357;SDS011;19717;42.614;23.418;2023-05-07T07:15:43;1.65;;;1.55;;
33357;SDS011;19717;42.614;23.418;2023-05-07T07:18:09;1.80;;;1.67;;
33357;SDS011;19717;42.614;23.418;2023-05-07T07:20:36;1.92;;;1.80;;
33357;SDS011;19717;42.614;23.418;2023-05-07T07:23:02;1.52;;;1.40;;
33357;SDS011;19717;42.614;23.418;2023-05-07T07:25:28;1.60;;;1.50;;
33357;SDS011;19717;42.614;23.418;2023-05-07T07:27:54;1.60;;;1.33;;
33357;SDS011;19717;42.614;23.418;2023-05-07T07:30:20;1.67;;;1.58;;
33357;SDS011;19717;42.614;23.418;2023-05-07T07:32:46;1.55;;;1.45;;
33357;SDS011;19717;42.614;23.418;2023-05-07T07:35:12;1.73;;;1.63;;
33357;SDS011;19717;42.614;23.418;2023-05-07T07:37:38;1.55;;;1.45;;
33357;SDS011;19717;42.614;23.418;2023-05-07T07:40:07;1.60;;;1.50;;
33357;SDS011;19717;42.614;23.418;2023-05-07T07:42:33;2.55;;;1.50;;
33357;SDS011;19717;42.614;23.418;2023-05-07T07:44:59;2.38;;;1.45;;
33357;SDS011;19717;42.614;23.418;2023-05-07T07:47:25;1.80;;;1.30;;
33357;SDS011;19717;42.614;23.418;2023-05-07T07:49:51;1.80;;;1.70;;
33357;SDS011;19717;42.614;23.418;2023-05-07T07:52:18;1.50;;;1.40;;
33357;SDS011;19717;42.614;23.418;2023-05-07T07:54:46;1.65;;;1.50;;
33357;SDS011;19717;42.614;23.418;2023-05-07T07:57:12;1.48;;;1.38;;
33357;SDS011;19717;42.614;23.418;2023-05-07T07:59:38;1.40;;;1.30;;
33357;SDS011;19717;42.614;23.418;2023-05-07T08:02:05;1.42;;;1.30;;
33357;SDS011;19717;42.614;23.418;2023-05-07T08:04:31;1.77;;;1.60;;
33357;SDS011;19717;42.614;23.418;2023-05-07T08:06:58;1.60;;;1.50;;
33357;SDS011;19717;42.614;23.418;2023-05-07T08:09:24;1.60;;;1.50;;
33357;SDS011;19717;42.614;23.418;2023-05-07T08:11:50;1.55;;;1.45;;
33357;SDS011;19717;42.614;23.418;2023-05-07T08:14:16;1.60;;;1.50;;
33357;SDS011;19717;42.614;23.418;2023-05-07T08:16:42;1.70;;;1.60;;
33357;SDS011;19717;42.614;23.418;2023-05-07T08:19:08;1.50;;;1.40;;
33357;SDS011;19717;42.614;23.418;2023-05-07T08:21:38;1.60;;;1.50;;
33357;SDS011;19717;42.614;23.418;2023-05-07T08:24:04;1.60;;;1.50;;
33357;SDS011;19717;42.614;23.418;2023-05-07T08:26:30;1.50;;;1.40;;
33357;SDS011;19717;42.614;23.418;2023-05-07T08:28:56;1.50;;;1.20;;
33357;SDS011;19717;42.614;23.418;2023-05-07T08:31:22;1.50;;;1.10;;
33357;SDS011;19717;42.614;23.418;2023-05-07T08:33:49;2.10;;;1.55;;
33357;SDS011;19717;42.614;23.418;2023-05-07T08:36:16;1.70;;;1.60;;
33357;SDS011;19717;42.614;23.418;2023-05-07T08:38:44;1.63;;;1.40;;
33357;SDS011;19717;42.614;23.418;2023-05-07T08:41:10;1.40;;;1.30;;
33357;SDS011;19717;42.614;23.418;2023-05-07T08:43:39;1.33;;;1.20;;
33357;SDS011;19717;42.614;23.418;2023-05-07T08:46:06;1.40;;;1.30;;
33357;SDS011;19717;42.614;23.418;2023-05-07T08:48:34;1.50;;;1.40;;
33357;SDS011;19717;42.614;23.418;2023-05-07T08:51:01;1.20;;;1.10;;
33357;SDS011;19717;42.614;23.418;2023-05-07T08:53:27;1.40;;;1.30;;
33357;SDS011;19717;42.614;23.418;2023-05-07T08:55:53;1.00;;;1.00;;
33357;SDS011;19717;42.614;23.418;2023-05-07T08:58:19;1.40;;;1.00;;
33357;SDS011;19717;42.614;23.418;2023-05-07T09:00:45;1.23;;;1.13;;
33357;SDS011;19717;42.614;23.418;2023-05-07T09:03:12;1.08;;;1.00;;
33357;SDS011;19717;42.614;23.418;2023-05-07T09:05:39;0.95;;;0.95;;
33357;SDS011;19717;42.614;23.418;2023-05-07T09:08:08;0.85;;;0.85;;
33357;SDS011;19717;42.614;23.418;2023-05-07T09:10:34;0.70;;;0.70;;
33357;SDS011;19717;42.614;23.418;2023-05-07T09:13:00;0.57;;;0.57;;
33357;SDS011;19717;42.614;23.418;2023-05-07T09:15:26;0.50;;;0.50;;
33357;SDS011;19717;42.614;23.418;2023-05-07T09:17:53;0.73;;;0.73;;
33357;SDS011;19717;42.614;23.418;2023-05-07T09:20:19;0.80;;;0.80;;
33357;SDS011;19717;42.614;23.418;2023-05-07T09:22:46;0.82;;;0.82;;
33357;SDS011;19717;42.614;23.418;2023-05-07T09:25:12;0.95;;;0.90;;
33357;SDS011;19717;42.614;23.418;2023-05-07T09:27:38;0.80;;;0.80;;
33357;SDS011;19717;42.614;23.418;2023-05-07T09:30:07;0.75;;;0.70;;
33357;SDS011;19717;42.614;23.418;2023-05-07T09:32:36;1.70;;;0.80;;
33357;SDS011;19717;42.614;23.418;2023-05-07T09:35:03;0.70;;;0.70;;
33357;SDS011;19717;42.614;23.418;2023-05-07T09:37:30;1.48;;;0.80;;
33357;SDS011;19717;42.614;23.418;2023-05-07T09:39:56;0.80;;;0.80;;
33357;SDS011;19717;42.614;23.418;2023-05-07T09:42:23;1.20;;;0.80;;
33357;SDS011;19717;42.614;23.418;2023-05-07T09:44:50;0.93;;;0.90;;
33357;SDS011;19717;42.614;23.418;2023-05-07T09:47:20;0.80;;;0.80;;
33357;SDS011;19717;42.614;23.418;2023-05-07T09:49:47;0.75;;;0.75;;
33357;SDS011;19717;42.614;23.418;2023-05-07T09:52:13;0.82;;;0.80;;
33357;SDS011;19717;42.614;23.418;2023-05-07T09:54:40;1.38;;;0.85;;
33357;SDS011;19717;42.614;23.418;2023-05-07T09:57:08;0.70;;;0.70;;
33357;SDS011;19717;42.614;23.418;2023-05-07T09:59:35;0.70;;;0.70;;
33357;SDS011;19717;42.614;23.418;2023-05-07T10:02:02;0.80;;;0.80;;
33357;SDS011;19717;42.614;23.418;2023-05-07T10:04:29;0.93;;;0.70;;
33357;SDS011;19717;42.614;23.418;2023-05-07T10:06:55;0.70;;;0.70;;
33357;SDS011;19717;42.614;23.418;2023-05-07T10:09:22;0.80;;;0.80;;
33357;SDS011;19717;42.614;23.418;2023-05-07T10:11:48;0.82;;;0.80;;
33357;SDS011;19717;42.614;23.418;2023-05-07T10:14:15;0.80;;;0.80;;
33357;SDS011;19717;42.614;23.418;2023-05-07T10:16:41;0.80;;;0.80;;
33357;SDS011;19717;42.614;23.418;2023-05-07T10:19:08;1.77;;;0.90;;
33357;SDS011;19717;42.614;23.418;2023-05-07T10:21:37;0.60;;;0.60;;
33357;SDS011;19717;42.614;23.418;2023-05-07T10:29:05;1.08;;;1.00;;
33357;SDS011;19717;42.614;23.418;2023-05-07T10:31:50;0.82;;;0.82;;
33357;SDS011;19717;42.614;23.418;2023-05-07T10:34:21;0.60;;;0.60;;
33357;SDS011;19717;42.614;23.418;2023-05-07T10:36:50;1.05;;;0.82;;
33357;SDS011;19717;42.614;23.418;2023-05-07T10:39:17;0.93;;;0.80;;
33357;SDS011;19717;42.614;23.418;2023-05-07T10:41:45;0.60;;;0.60;;
33357;SDS011;19717;42.614;23.418;2023-05-07T10:44:11;0.95;;;0.65;;
33357;SDS011;19717;42.614;23.418;2023-05-07T10:46:37;0.68;;;0.68;;
33357;SDS011;19717;42.614;23.418;2023-05-07T10:51:31;0.70;;;0.70;;
33357;SDS011;19717;42.614;23.418;2023-05-07T10:56:42;0.68;;;0.60;;
33357;SDS011;19717;42.614;23.418;2023-05-07T11:01:56;0.65;;;0.65;;
33357;SDS011;19717;42.614;23.418;2023-05-07T11:04:27;0.68;;;0.68;;
33357;SDS011;19717;42.614;23.418;2023-05-07T11:17:32;0.70;;;0.70;;
33357;SDS011;19717;42.614;23.418;2023-05-07T11:20:00;1.02;;;0.60;;
33357;SDS011;19717;42.614;23.418;2023-05-07T11:22:36;0.65;;;0.65;;
33357;SDS011;19717;42.614;23.418;2023-05-07T11:25:05;0.85;;;0.70;;
33357;SDS011;19717;42.614;23.418;2023-05-07T11:27:31;0.68;;;0.68;;
33357;SDS011;19717;42.614;23.418;2023-05-07T11:29:58;1.05;;;0.70;;
33357;SDS011;19717;42.614;23.418;2023-05-07T11:32:26;0.60;;;0.60;;
33357;SDS011;19717;42.614;23.418;2023-05-07T11:34:53;0.68;;;0.68;;
33357;SDS011;19717;42.614;23.418;2023-05-07T11:37:20;0.70;;;0.70;;
33357;SDS011;19717;42.614;23.418;2023-05-07T11:39:46;0.60;;;0.60;;
33357;SDS011;19717;42.614;23.418;2023-05-07T11:42:31;0.95;;;0.90;;
33357;SDS011;19717;42.614;23.418;2023-05-07T11:44:58;0.70;;;0.70;;
33357;SDS011;19717;42.614;23.418;2023-05-07T11:47:29;0.63;;;0.60;;
33357;SDS011;19717;42.614;23.418;2023-05-07T11:49:55;0.70;;;0.70;;
33357;SDS011;19717;42.614;23.418;2023-05-07T11:52:22;0.70;;;0.70;;
33357;SDS011;19717;42.614;23.418;2023-05-07T11:54:49;0.80;;;0.80;;
33357;SDS011;19717;42.614;23.418;2023-05-07T11:57:15;1.23;;;0.70;;
33357;SDS011;19717;42.614;23.418;2023-05-07T11:59:42;1.42;;;1.33;;
33357;SDS011;19717;42.614;23.418;2023-05-07T12:02:14;0.80;;;0.80;;
33357;SDS011;19717;42.614;23.418;2023-05-07T12:04:41;0.80;;;0.80;;
33357;SDS011;19717;42.614;23.418;2023-05-07T12:07:13;0.70;;;0.70;;
33357;SDS011;19717;42.614;23.418;2023-05-07T12:09:40;0.85;;;0.70;;
33357;SDS011;19717;42.614;23.418;2023-05-07T12:12:06;0.60;;;0.60;;
33357;SDS011;19717;42.614;23.418;2023-05-07T12:14:33;0.88;;;0.88;;
33357;SDS011;19717;42.614;23.418;2023-05-07T12:17:03;0.70;;;0.70;;
33357;SDS011;19717;42.614;23.418;2023-05-07T12:19:30;0.70;;;0.70;;
33357;SDS011;19717;42.614;23.418;2023-05-07T12:21:56;0.70;;;0.70;;
33357;SDS011;19717;42.614;23.418;2023-05-07T12:24:22;0.70;;;0.70;;
33357;SDS011;19717;42.614;23.418;2023-05-07T12:26:48;0.77;;;0.77;;
33357;SDS011;19717;42.614;23.418;2023-05-07T12:29:15;0.70;;;0.70;;
33357;SDS011;19717;42.614;23.418;2023-05-07T12:31:41;0.75;;;0.75;;
33357;SDS011;19717;42.614;23.418;2023-05-07T12:34:07;0.70;;;0.70;;
33357;SDS011;19717;42.614;23.418;2023-05-07T12:36:39;0.90;;;0.90;;
33357;SDS011;19717;42.614;23.418;2023-05-07T12:39:06;0.70;;;0.70;;
33357;SDS011;19717;42.614;23.418;2023-05-07T12:41:36;0.63;;;0.63;;
33357;SDS011;19717;42.614;23.418;2023-05-07T12:44:03;0.70;;;0.70;;
33357;SDS011;19717;42.614;23.418;2023-05-07T12:46:30;0.95;;;0.60;;
33357;SDS011;19717;42.614;23.418;2023-05-07T12:48:56;0.90;;;0.80;;
33357;SDS011;19717;42.614;23.418;2023-05-07T12:51:22;0.90;;;0.90;;
33357;SDS011;19717;42.614;23.418;2023-05-07T12:53:48;0.68;;;0.63;;
33357;SDS011;19717;42.614;23.418;2023-05-07T12:56:15;3.85;;;0.93;;
33357;SDS011;19717;42.614;23.418;2023-05-07T12:58:41;2.90;;;0.75;;
33357;SDS011;19717;42.614;23.418;2023-05-07T13:01:07;1.20;;;1.10;;
33357;SDS011;19717;42.614;23.418;2023-05-07T13:03:35;0.70;;;0.70;;
33357;SDS011;19717;42.614;23.418;2023-05-07T13:06:02;0.82;;;0.68;;
33357;SDS011;19717;42.614;23.418;2023-05-07T13:10:55;0.85;;;0.85;;
33357;SDS011;19717;42.614;23.418;2023-05-07T13:13:21;0.80;;;0.80;;
33357;SDS011;19717;42.614;23.418;2023-05-07T13:15:47;0.68;;;0.68;;
33357;SDS011;19717;42.614;23.418;2023-05-07T13:18:14;1.55;;;0.90;;
33357;SDS011;19717;42.614;23.418;2023-05-07T13:20:40;1.60;;;0.65;;
33357;SDS011;19717;42.614;23.418;2023-05-07T13:23:06;1.13;;;0.80;;
33357;SDS011;19717;42.614;23.418;2023-05-07T13:25:32;2.08;;;0.80;;
33357;SDS011;19717;42.614;23.418;2023-05-07T13:27:58;0.68;;;0.68;;
33357;SDS011;19717;42.614;23.418;2023-05-07T13:30:24;0.60;;;0.60;;
33357;SDS011;19717;42.614;23.418;2023-05-07T13:32:50;1.00;;;0.60;;
33357;SDS011;19717;42.614;23.418;2023-05-07T13:35:17;3.47;;;0.70;;
33357;SDS011;19717;42.614;23.418;2023-05-07T13:37:43;0.50;;;0.50;;
33357;SDS011;19717;42.614;23.418;2023-05-07T13:40:09;0.60;;;0.60;;
33357;SDS011;19717;42.614;23.418;2023-05-07T13:42:35;0.60;;;0.60;;
33357;SDS011;19717;42.614;23.418;2023-05-07T13:45:01;0.70;;;0.70;;
33357;SDS011;19717;42.614;23.418;2023-05-07T13:47:29;0.50;;;0.50;;
33357;SDS011;19717;42.614;23.418;2023-05-07T13:49:55;0.70;;;0.70;;
33357;SDS011;19717;42.614;23.418;2023-05-07T13:52:21;0.50;;;0.50;;
33357;SDS011;19717;42.614;23.418;2023-05-07T13:54:47;0.60;;;0.60;;
33357;SDS011;19717;42.614;23.418;2023-05-07T13:57:13;0.60;;;0.60;;
33357;SDS011;19717;42.614;23.418;2023-05-07T13:59:40;0.60;;;0.60;;
33357;SDS011;19717;42.614;23.418;2023-05-07T14:02:06;0.93;;;0.60;;
33357;SDS011;19717;42.614;23.418;2023-05-07T14:04:33;0.60;;;0.60;;
33357;SDS011;19717;42.614;23.418;2023-05-07T14:07:00;0.60;;;0.60;;
33357;SDS011;19717;42.614;23.418;2023-05-07T14:09:26;0.60;;;0.60;;
33357;SDS011;19717;42.614;23.418;2023-05-07T14:11:52;0.50;;;0.50;;
33357;SDS011;19717;42.614;23.418;2023-05-07T14:14:18;0.50;;;0.50;;
33357;SDS011;19717;42.614;23.418;2023-05-07T14:16:44;0.50;;;0.50;;
33357;SDS011;19717;42.614;23.418;2023-05-07T14:19:11;1.30;;;0.60;;
33357;SDS011;19717;42.614;23.418;2023-05-07T14:21:37;0.50;;;0.50;;
33357;SDS011;19717;42.614;23.418;2023-05-07T14:24:04;0.60;;;0.60;;
33357;SDS011;19717;42.614;23.418;2023-05-07T14:26:33;0.55;;;0.55;;
33357;SDS011;19717;42.614;23.418;2023-05-07T14:28:59;0.50;;;0.50;;
33357;SDS011;19717;42.614;23.418;2023-05-07T14:31:25;1.25;;;0.60;;
33357;SDS011;19717;42.614;23.418;2023-05-07T14:33:54;1.25;;;0.90;;
33357;SDS011;19717;42.614;23.418;2023-05-07T14:36:22;1.15;;;0.60;;
33357;SDS011;19717;42.614;23.418;2023-05-07T14:38:51;0.50;;;0.50;;
33357;SDS011;19717;42.614;23.418;2023-05-07T14:41:21;0.50;;;0.50;;
33357;SDS011;19717;42.614;23.418;2023-05-07T14:43:47;0.50;;;0.50;;
33357;SDS011;19717;42.614;23.418;2023-05-07T14:46:18;0.57;;;0.57;;
33357;SDS011;19717;42.614;23.418;2023-05-07T14:48:44;0.63;;;0.63;;
33357;SDS011;19717;42.614;23.418;2023-05-07T14:51:13;3.40;;;0.63;;
33357;SDS011;19717;42.614;23.418;2023-05-07T14:53:42;0.73;;;0.60;;
33357;SDS011;19717;42.614;23.418;2023-05-07T14:56:09;0.52;;;0.52;;